Weather at Eliporto le dune

Public forecast

Using degrees Celsius for public forecast. Weather courtesy of forecast.io.

Closest aviation weather report (METAR) to Eliporto le dune

Closest report is Brindisi Airport, 15.6 nm (29.0 km) ESE. Retrieved 2021/09/20 04:20 UTC (15 minutes ago):

LIBR 200420Z 18003KT CAVOK 21/19 Q1011

Closest aviation forecast (TAF) to Eliporto le dune

Closest forecast is Brindisi Airport, 15.6 nm (29.0 km) ESE. Retrieved 2021-09-20 00:00 UTC (5 hours ago):

TAF LIBR 192300Z 2000/2024 VRB05KT 9999 FEW020 BECMG 2012/2014 07010KT